Time;durP1;ratioP1;P1;durP2;ratioP2;P2;SDS_P1;SDS_P2;PMS_P1;PMS_P2;Temp;Humidity;BMP_temperature;BMP_pressure;BME280_temperature;BME280_humidity;BME280_pressure;Samples;Min_cycle;Max_cycle;Signal;HPM_P1;HPM_P2
2021/09/04 00:00:23;;;;;;;7.93;7.23;;;21.60;37.20;;;;;;4955563;29;20262;-68
2021/09/04 00:02:49;;;;;;;6.93;6.43;;;21.50;37.10;;;;;;4955755;29;20179;-67
2021/09/04 00:05:14;;;;;;;10.30;7.23;;;21.50;37.10;;;;;;4955739;29;20552;-66
2021/09/04 00:07:40;;;;;;;6.73;6.23;;;21.50;37.10;;;;;;4955821;29;20184;-67
2021/09/04 00:10:06;;;;;;;8.10;7.50;;;21.50;37.20;;;;;;4955053;28;20199;-67
2021/09/04 00:12:32;;;;;;;7.13;6.60;;;21.50;37.20;;;;;;4955494;28;20791;-67
2021/09/04 00:14:57;;;;;;;7.80;7.20;;;21.50;37.30;;;;;;4955572;29;20553;-67
2021/09/04 00:17:23;;;;;;;7.80;7.00;;;21.50;37.20;;;;;;4955533;28;20233;-67
2021/09/04 00:19:49;;;;;;;8.07;7.40;;;21.50;37.20;;;;;;4955283;28;20724;-68
2021/09/04 00:22:15;;;;;;;7.00;6.50;;;21.50;37.30;;;;;;4955561;28;20179;-69
2021/09/04 00:24:40;;;;;;;8.60;7.80;;;21.50;37.30;;;;;;4955450;28;20634;-68
2021/09/04 00:27:09;;;;;;;7.30;6.67;;;21.50;37.20;;;;;;4955260;29;20175;-67
2021/09/04 00:29:35;;;;;;;8.80;8.10;;;21.50;37.30;;;;;;4955019;29;20200;-69
2021/09/04 00:32:01;;;;;;;7.90;7.30;;;21.50;37.30;;;;;;4955311;28;20903;-67
2021/09/04 00:34:27;;;;;;;7.83;7.23;;;21.50;37.20;;;;;;4955109;28;20478;-68
2021/09/04 00:36:52;;;;;;;7.80;7.10;;;21.50;37.30;;;;;;4955137;29;20412;-67
2021/09/04 00:39:18;;;;;;;7.80;7.10;;;21.50;37.40;;;;;;4954821;29;20175;-67
2021/09/04 00:41:44;;;;;;;7.77;7.17;;;21.50;37.40;;;;;;4954998;29;20172;-67
2021/09/04 00:44:15;;;;;;;7.90;7.10;;;21.50;37.40;;;;;;4955031;28;20175;-67
2021/09/04 00:46:40;;;;;;;8.53;7.83;;;21.50;37.40;;;;;;4954930;28;20415;-66
2021/09/04 00:49:06;;;;;;;7.67;7.07;;;21.50;38.10;;;;;;4954593;29;20438;-67
2021/09/04 00:51:31;;;;;;;7.67;7.07;;;21.50;37.40;;;;;;4954897;29;20199;-67
2021/09/04 00:53:57;;;;;;;7.77;7.17;;;21.50;37.40;;;;;;4954794;28;20199;-67
2021/09/04 00:56:23;;;;;;;7.90;7.30;;;21.50;37.40;;;;;;4954832;28;20171;-67
2021/09/04 00:58:49;;;;;;;7.20;6.60;;;21.50;37.40;;;;;;4954620;28;20589;-68
2021/09/04 01:01:14;;;;;;;8.10;7.40;;;21.40;37.30;;;;;;4954591;29;20498;-67
2021/09/04 01:03:40;;;;;;;8.30;7.60;;;21.50;37.40;;;;;;4954636;29;20266;-68
2021/09/04 01:06:05;;;;;;;7.20;6.70;;;21.40;38.10;;;;;;4954830;29;20175;-68
2021/09/04 01:08:31;;;;;;;7.60;6.90;;;21.50;37.50;;;;;;4954396;28;20180;-67
2021/09/04 01:10:57;;;;;;;7.53;6.93;;;21.40;37.50;;;;;;4954496;29;20255;-68
2021/09/04 01:13:22;;;;;;;8.27;7.57;;;21.40;37.50;;;;;;4954422;29;20176;-68
2021/09/04 01:15:48;;;;;;;8.67;7.90;;;21.40;37.50;;;;;;4954496;28;20650;-68
2021/09/04 01:18:15;;;;;;;8.10;7.50;;;21.40;37.50;;;;;;4954439;28;20171;-67
2021/09/04 01:20:41;;;;;;;8.63;7.93;;;21.40;37.50;;;;;;4953928;28;20438;-68
2021/09/04 01:23:07;;;;;;;7.40;6.87;;;21.40;37.50;;;;;;4954107;28;20859;-68
2021/09/04 01:25:33;;;;;;;8.43;7.80;;;21.40;37.40;;;;;;4954283;29;20504;-68
2021/09/04 01:28:01;;;;;;;9.00;8.20;;;21.40;37.40;;;;;;4954377;28;20407;-67
2021/09/04 01:30:27;;;;;;;9.17;8.47;;;21.40;37.40;;;;;;4953931;28;20968;-68
2021/09/04 01:32:54;;;;;;;8.20;7.50;;;21.40;37.40;;;;;;4954237;28;20419;-68
2021/09/04 01:35:22;;;;;;;8.17;7.47;;;21.40;37.40;;;;;;4954244;28;20469;-68
2021/09/04 01:37:49;;;;;;;8.43;7.73;;;21.40;37.40;;;;;;4954299;28;20407;-67
2021/09/04 01:40:16;;;;;;;8.77;7.97;;;21.40;37.40;;;;;;4953852;28;20438;-68
2021/09/04 01:42:43;;;;;;;7.97;7.17;;;21.40;37.40;;;;;;4954065;28;20419;-67
2021/09/04 01:45:10;;;;;;;8.00;7.40;;;21.40;37.40;;;;;;4954276;28;20834;-68
2021/09/04 01:47:35;;;;;;;7.80;7.20;;;21.40;37.40;;;;;;4954136;28;20411;-68
2021/09/04 01:50:03;;;;;;;7.17;6.67;;;21.40;37.30;;;;;;4953688;29;20441;-68
2021/09/04 01:52:28;;;;;;;8.17;7.47;;;21.40;37.30;;;;;;4954053;28;20172;-68
2021/09/04 01:54:54;;;;;;;9.27;8.47;;;21.40;37.30;;;;;;4953857;29;20453;-67
2021/09/04 01:57:20;;;;;;;8.70;8.00;;;21.40;37.30;;;;;;4953945;28;20179;-68
2021/09/04 01:59:46;;;;;;;7.90;7.30;;;21.40;37.30;;;;;;4953608;28;20201;-68
2021/09/04 02:02:12;;;;;;;8.60;7.90;;;21.40;37.30;;;;;;4953868;28;20519;-68
2021/09/04 02:04:38;;;;;;;8.30;7.50;;;21.40;37.20;;;;;;4953945;28;20415;-68
2021/09/04 02:07:04;;;;;;;8.20;7.60;;;21.40;37.20;;;;;;4953915;28;20445;-67
2021/09/04 02:09:30;;;;;;;8.13;7.50;;;21.40;37.30;;;;;;4953387;29;20180;-67
2021/09/04 02:11:57;;;;;;;8.00;7.40;;;21.40;37.30;;;;;;4953829;28;20501;-67
2021/09/04 02:14:22;;;;;;;8.10;7.40;;;21.40;37.30;;;;;;4953945;28;20525;-67
2021/09/04 02:16:48;;;;;;;8.33;7.53;;;21.40;37.30;;;;;;4953787;28;20415;-68
2021/09/04 02:19:13;;;;;;;7.77;7.17;;;21.40;37.30;;;;;;4953711;28;20182;-67
2021/09/04 02:21:39;;;;;;;8.10;7.30;;;21.40;37.30;;;;;;4953825;28;20817;-67
2021/09/04 02:24:05;;;;;;;8.23;7.60;;;21.40;37.30;;;;;;4953659;29;20175;-67
2021/09/04 02:26:31;;;;;;;9.07;8.37;;;21.40;37.30;;;;;;4953723;28;20180;-67
2021/09/04 02:28:58;;;;;;;7.90;7.30;;;21.40;37.30;;;;;;4953363;28;20747;-68
2021/09/04 02:31:24;;;;;;;8.20;7.50;;;21.40;37.30;;;;;;4953626;28;20203;-67
2021/09/04 02:33:54;;;;;;;8.20;7.50;;;21.30;37.20;;;;;;4956392;28;20454;-69
2021/09/04 02:36:20;;;;;;;7.70;7.10;;;21.40;37.30;;;;;;4957379;28;20468;-67
2021/09/04 02:38:47;;;;;;;7.50;6.80;;;21.30;37.20;;;;;;4957209;28;20472;-67
2021/09/04 02:41:12;;;;;;;8.20;7.33;;;21.30;37.20;;;;;;4957195;28;20437;-69
2021/09/04 02:43:38;;;;;;;7.93;7.33;;;21.30;37.20;;;;;;4957346;29;20423;-69
2021/09/04 02:46:04;;;;;;;8.13;7.23;;;21.30;37.20;;;;;;4957229;29;20172;-67
2021/09/04 02:48:29;;;;;;;7.20;6.70;;;21.40;37.30;;;;;;4957071;29;20199;-67
2021/09/04 02:50:55;;;;;;;7.90;7.27;;;21.40;37.20;;;;;;4957140;28;20231;-68
2021/09/04 02:53:20;;;;;;;8.50;7.83;;;21.30;37.20;;;;;;4957042;29;20266;-68
2021/09/04 02:55:46;;;;;;;8.13;7.43;;;21.40;37.30;;;;;;4956955;29;20171;-67
2021/09/04 02:58:11;;;;;;;7.30;6.77;;;21.30;37.20;;;;;;4957025;29;20264;-67
2021/09/04 03:00:37;;;;;;;7.40;6.73;;;21.30;37.20;;;;;;4956552;29;20215;-68
2021/09/04 03:03:02;;;;;;;7.53;7.03;;;21.30;37.20;;;;;;4957064;29;20587;-67
2021/09/04 03:05:28;;;;;;;7.47;6.90;;;21.30;37.20;;;;;;4956856;29;20262;-67
2021/09/04 03:07:53;;;;;;;8.80;7.93;;;21.30;37.10;;;;;;4956918;28;20262;-67
2021/09/04 03:10:19;;;;;;;8.07;7.37;;;21.30;37.10;;;;;;4956472;29;20291;-70
2021/09/04 03:12:45;;;;;;;7.77;7.07;;;21.30;37.10;;;;;;4956813;28;20175;-69
2021/09/04 03:15:11;;;;;;;8.40;7.70;;;21.30;37.10;;;;;;4956806;29;20273;-68
2021/09/04 03:17:36;;;;;;;8.47;7.30;;;21.30;37.10;;;;;;4956772;28;20263;-69
2021/09/04 03:20:03;;;;;;;7.47;6.87;;;21.30;37.10;;;;;;4956345;29;20480;-69
2021/09/04 03:22:28;;;;;;;8.13;7.43;;;21.30;37.10;;;;;;4956619;28;20172;-69
2021/09/04 03:24:54;;;;;;;7.23;6.73;;;21.30;37.10;;;;;;4956468;29;20835;-69
2021/09/04 03:27:19;;;;;;;7.77;6.70;;;21.30;37.10;;;;;;4956536;29;20191;-68
2021/09/04 03:29:45;;;;;;;8.27;7.50;;;21.30;37.10;;;;;;4956201;28;20195;-68
2021/09/04 03:32:10;;;;;;;8.37;7.67;;;21.30;37.10;;;;;;4956465;29;20589;-67
2021/09/04 03:34:36;;;;;;;7.67;6.97;;;21.30;37.20;;;;;;4956214;28;20290;-67
2021/09/04 03:37:02;;;;;;;8.00;7.30;;;21.30;37.10;;;;;;4956294;29;20300;-68
2021/09/04 03:39:27;;;;;;;7.10;6.50;;;21.30;37.20;;;;;;4956010;29;20187;-67
2021/09/04 03:41:53;;;;;;;7.37;6.87;;;21.30;37.10;;;;;;4956210;28;20176;-66
2021/09/04 03:44:18;;;;;;;7.30;6.80;;;21.30;37.10;;;;;;4955455;28;20179;-67
2021/09/04 03:46:44;;;;;;;7.30;6.70;;;21.30;37.10;;;;;;4956175;29;20282;-69
2021/09/04 03:49:09;;;;;;;7.80;7.20;;;21.30;37.10;;;;;;4955942;28;20586;-67
2021/09/04 03:51:35;;;;;;;8.20;7.50;;;21.30;37.10;;;;;;4955884;28;20678;-67
2021/09/04 03:54:00;;;;;;;8.20;7.40;;;21.30;37.10;;;;;;4955957;29;20286;-67
2021/09/04 03:56:26;;;;;;;7.53;6.93;;;21.30;37.10;;;;;;4956077;28;20581;-68
2021/09/04 03:58:52;;;;;;;7.47;6.87;;;21.30;37.10;;;;;;4955816;28;20259;-68
2021/09/04 04:01:18;;;;;;;7.30;6.80;;;21.30;37.00;;;;;;4955713;29;20243;-68
2021/09/04 04:03:44;;;;;;;7.40;6.67;;;21.30;37.10;;;;;;4955904;28;20183;-67
2021/09/04 04:06:09;;;;;;;8.10;7.40;;;21.30;37.00;;;;;;4955745;29;20419;-67
2021/09/04 04:08:35;;;;;;;8.33;7.73;;;21.30;37.00;;;;;;4955507;28;20465;-69
2021/09/04 04:11:08;;;;;;;7.97;7.37;;;21.30;37.00;;;;;;4955626;28;20199;-68
2021/09/04 04:13:34;;;;;;;8.17;7.30;;;21.30;37.00;;;;;;4955722;28;20199;-67
2021/09/04 04:16:00;;;;;;;7.53;6.93;;;21.30;37.00;;;;;;4955616;28;20442;-67
2021/09/04 04:18:26;;;;;;;6.97;6.47;;;21.30;37.00;;;;;;4955450;29;20571;-67
2021/09/04 04:20:51;;;;;;;8.00;7.40;;;21.30;37.00;;;;;;4955335;29;20207;-69
2021/09/04 04:23:17;;;;;;;7.23;6.73;;;21.30;37.00;;;;;;4954298;28;20176;-69
2021/09/04 04:25:42;;;;;;;7.80;7.20;;;21.30;37.00;;;;;;4955342;29;20183;-69
2021/09/04 04:28:08;;;;;;;7.27;6.63;;;21.30;36.90;;;;;;4955373;29;20176;-68
2021/09/04 04:30:33;;;;;;;7.50;6.90;;;21.30;37.00;;;;;;4954974;28;20195;-68
2021/09/04 04:32:59;;;;;;;7.07;6.57;;;21.30;37.00;;;;;;4955330;29;20233;-67
2021/09/04 04:35:24;;;;;;;6.93;6.43;;;21.30;36.90;;;;;;4955198;29;20262;-68
2021/09/04 04:37:50;;;;;;;8.27;7.53;;;21.30;36.90;;;;;;4955044;29;20587;-67
2021/09/04 04:40:15;;;;;;;7.87;7.27;;;21.30;37.00;;;;;;4954894;29;20201;-69
2021/09/04 04:42:41;;;;;;;8.73;8.03;;;21.30;37.00;;;;;;4955069;29;20234;-67
2021/09/04 04:45:07;;;;;;;8.00;7.30;;;21.30;37.00;;;;;;4955189;29;20183;-66
2021/09/04 04:47:33;;;;;;;7.87;7.27;;;21.30;37.00;;;;;;4954894;29;20658;-67
2021/09/04 04:49:59;;;;;;;7.63;6.93;;;21.20;37.00;;;;;;4954656;28;21036;-67
2021/09/04 04:52:25;;;;;;;7.97;7.37;;;21.30;37.10;;;;;;4954789;29;20423;-68
2021/09/04 04:54:50;;;;;;;9.10;6.93;;;21.30;37.10;;;;;;4954832;29;20211;-67
2021/09/04 04:57:16;;;;;;;7.33;6.63;;;21.20;37.10;;;;;;4953705;28;20635;-69
2021/09/04 04:59:41;;;;;;;7.43;6.83;;;21.30;37.10;;;;;;4954565;29;20202;-67
2021/09/04 05:02:07;;;;;;;7.60;6.80;;;21.30;37.10;;;;;;4954651;29;20198;-67
2021/09/04 05:04:33;;;;;;;6.80;6.30;;;21.30;37.10;;;;;;4954710;29;20638;-69
2021/09/04 05:06:58;;;;;;;8.23;7.50;;;21.20;37.10;;;;;;4954550;28;20214;-68
2021/09/04 05:09:24;;;;;;;7.47;6.83;;;21.20;37.10;;;;;;4954409;28;20243;-67
2021/09/04 05:11:49;;;;;;;9.30;6.93;;;21.20;37.00;;;;;;4954501;29;20179;-67
2021/09/04 05:14:15;;;;;;;7.77;7.13;;;21.20;37.00;;;;;;4954584;29;20199;-67
2021/09/04 05:16:40;;;;;;;7.07;6.30;;;21.20;37.10;;;;;;4954519;28;20242;-68
2021/09/04 05:19:06;;;;;;;7.00;6.40;;;21.20;37.00;;;;;;4954272;29;20175;-68
2021/09/04 05:21:32;;;;;;;7.47;6.77;;;21.20;37.00;;;;;;4954234;28;20254;-67
2021/09/04 05:23:57;;;;;;;6.87;6.37;;;21.20;37.10;;;;;;4954415;28;20246;-67
2021/09/04 05:26:23;;;;;;;7.40;6.90;;;21.20;37.10;;;;;;4954406;29;20825;-68
2021/09/04 05:28:48;;;;;;;7.90;7.20;;;21.20;37.20;;;;;;4954114;29;20175;-67
2021/09/04 05:31:14;;;;;;;7.53;6.83;;;21.20;37.30;;;;;;4954172;29;20234;-67
2021/09/04 05:33:40;;;;;;;7.30;6.70;;;21.20;37.30;;;;;;4954099;29;20675;-66
2021/09/04 05:36:07;;;;;;;7.73;7.03;;;21.20;37.50;;;;;;4954202;28;20176;-67
2021/09/04 05:38:37;;;;;;;9.50;8.70;;;21.20;37.40;;;;;;4953820;28;20654;-69
2021/09/04 05:41:09;;;;;;;7.00;6.50;;;21.20;37.50;;;;;;4954099;28;20419;-67
2021/09/04 05:43:35;;;;;;;7.80;7.20;;;21.30;37.60;;;;;;4953837;28;20481;-67
2021/09/04 05:46:00;;;;;;;7.30;6.70;;;21.30;37.60;;;;;;4953983;28;20419;-68
2021/09/04 05:48:26;;;;;;;8.73;7.93;;;21.20;37.60;;;;;;4952636;28;20175;-67
2021/09/04 05:50:51;;;;;;;13.70;9.70;;;21.20;37.60;;;;;;4953833;28;20228;-73
2021/09/04 05:53:17;;;;;;;9.93;8.60;;;21.20;37.70;;;;;;4953797;28;20171;-68
2021/09/04 05:55:42;;;;;;;9.37;8.43;;;21.30;37.90;;;;;;4954086;28;20171;-68
2021/09/04 05:58:08;;;;;;;9.90;8.33;;;21.30;37.80;;;;;;4953780;28;20182;-68
2021/09/04 06:00:33;;;;;;;9.43;8.63;;;21.30;37.80;;;;;;4953568;28;20293;-69
2021/09/04 06:02:59;;;;;;;10.10;9.10;;;21.30;37.80;;;;;;4953510;28;20645;-68
2021/09/04 06:05:24;;;;;;;10.90;9.13;;;21.30;37.90;;;;;;4954091;28;20195;-68
2021/09/04 06:07:50;;;;;;;9.57;8.77;;;21.30;37.90;;;;;;4952586;28;20187;-69
2021/09/04 06:10:15;;;;;;;8.87;8.10;;;21.30;38.60;;;;;;4952549;28;20653;-68
2021/09/04 06:12:41;;;;;;;9.20;8.37;;;21.30;37.80;;;;;;4953832;29;20192;-67
2021/09/04 06:15:07;;;;;;;9.93;9.00;;;21.30;37.80;;;;;;4953582;28;20255;-68
2021/09/04 06:17:33;;;;;;;9.23;8.47;;;21.30;37.80;;;;;;4953953;28;20172;-67
2021/09/04 06:19:59;;;;;;;9.00;8.30;;;21.20;38.40;;;;;;4953290;28;20482;-67
2021/09/04 06:22:26;;;;;;;8.90;8.30;;;21.30;37.80;;;;;;4953860;29;20175;-68
2021/09/04 06:24:52;;;;;;;8.33;7.63;;;21.30;37.80;;;;;;4953666;28;20197;-67
2021/09/04 06:27:18;;;;;;;9.13;8.20;;;21.20;37.70;;;;;;4953720;28;20635;-67
2021/09/04 06:29:43;;;;;;;8.50;7.80;;;21.20;37.60;;;;;;4953281;28;20431;-68
2021/09/04 06:32:09;;;;;;;9.43;8.73;;;21.20;37.50;;;;;;4953520;28;20653;-68
2021/09/04 06:34:34;;;;;;;9.30;8.60;;;21.30;37.60;;;;;;4953234;29;20290;-69
2021/09/04 06:37:00;;;;;;;8.90;8.03;;;21.30;37.30;;;;;;4953567;29;20270;-68
2021/09/04 06:39:26;;;;;;;8.07;7.37;;;21.20;36.80;;;;;;4953173;29;20226;-68
2021/09/04 06:41:51;;;;;;;8.73;7.83;;;21.20;36.60;;;;;;4953598;29;20179;-68
2021/09/04 06:44:17;;;;;;;9.10;8.30;;;21.20;36.40;;;;;;4953364;29;20258;-70
2021/09/04 06:46:42;;;;;;;9.10;8.20;;;21.20;36.30;;;;;;4953368;28;20662;-68
2021/09/04 06:49:08;;;;;;;8.83;7.57;;;21.20;36.30;;;;;;4953085;29;20226;-68
2021/09/04 06:51:33;;;;;;;7.87;7.17;;;21.20;36.30;;;;;;4953221;29;20245;-68
2021/09/04 06:53:59;;;;;;;9.80;7.40;;;21.20;36.40;;;;;;4953169;28;20745;-68
2021/09/04 06:56:26;;;;;;;8.60;7.97;;;21.20;36.50;;;;;;4953247;29;20576;-67
2021/09/04 06:58:51;;;;;;;8.87;8.07;;;21.20;36.60;;;;;;4953094;28;20590;-70
2021/09/04 07:01:17;;;;;;;8.90;8.20;;;21.20;37.10;;;;;;4952985;29;20458;-68
2021/09/04 07:03:42;;;;;;;9.03;7.30;;;21.20;37.30;;;;;;4953090;29;20528;-67
2021/09/04 07:06:08;;;;;;;15.67;9.23;;;21.20;37.50;;;;;;4953093;28;20605;-69
2021/09/04 07:08:33;;;;;;;10.33;9.30;;;21.30;37.60;;;;;;4953003;28;20606;-70
2021/09/04 07:10:59;;;;;;;11.03;10.00;;;21.20;37.40;;;;;;4952892;28;20195;-68
2021/09/04 07:13:24;;;;;;;13.97;9.00;;;21.30;37.40;;;;;;4953033;29;20183;-68
2021/09/04 07:15:50;;;;;;;9.90;8.37;;;21.30;37.40;;;;;;4952947;29;20266;-68
2021/09/04 07:18:16;;;;;;;9.67;8.67;;;21.30;37.40;;;;;;4952878;28;20212;-68
2021/09/04 07:20:41;;;;;;;13.13;8.83;;;21.30;37.50;;;;;;4955021;29;20222;-68
2021/09/04 07:23:07;;;;;;;10.97;8.70;;;21.30;37.50;;;;;;4956372;28;20270;-68
2021/09/04 07:25:32;;;;;;;8.73;7.83;;;21.30;37.50;;;;;;4956288;29;20183;-69
2021/09/04 07:27:58;;;;;;;10.00;9.00;;;21.30;37.40;;;;;;4956362;29;20175;-68
2021/09/04 07:30:23;;;;;;;10.27;8.30;;;21.30;37.40;;;;;;4955876;29;20230;-68
2021/09/04 07:32:49;;;;;;;10.67;8.70;;;21.30;37.50;;;;;;4956090;29;20180;-68
2021/09/04 07:35:14;;;;;;;9.40;8.47;;;21.30;37.40;;;;;;4955934;29;20214;-68
2021/09/04 07:37:40;;;;;;;9.40;8.50;;;21.30;37.50;;;;;;4956141;29;20179;-68
2021/09/04 07:40:06;;;;;;;10.60;8.30;;;21.30;37.50;;;;;;4955911;29;20202;-69
2021/09/04 07:42:32;;;;;;;8.97;8.17;;;21.30;37.40;;;;;;4956092;28;20669;-68
2021/09/04 07:44:57;;;;;;;10.40;8.40;;;21.30;37.50;;;;;;4955978;29;20415;-68
2021/09/04 07:47:23;;;;;;;8.90;8.10;;;21.30;37.50;;;;;;4956190;28;20187;-68
2021/09/04 07:49:48;;;;;;;9.57;8.77;;;21.30;37.50;;;;;;4955664;29;20199;-68
2021/09/04 07:52:14;;;;;;;9.90;8.90;;;21.30;37.40;;;;;;4955947;29;20200;-68
2021/09/04 07:54:39;;;;;;;8.50;7.80;;;21.40;37.50;;;;;;4956009;29;20266;-67
2021/09/04 07:57:05;;;;;;;10.10;8.57;;;21.30;37.40;;;;;;4955920;28;20175;-70
2021/09/04 07:59:30;;;;;;;8.10;7.40;;;21.40;37.50;;;;;;4955667;29;20186;-68
2021/09/04 08:01:56;;;;;;;8.43;7.73;;;21.30;37.30;;;;;;4955372;29;20558;-68
2021/09/04 08:04:21;;;;;;;9.20;8.40;;;21.40;37.50;;;;;;4955699;28;20238;-68
2021/09/04 08:06:47;;;;;;;8.97;8.27;;;21.40;37.50;;;;;;4955567;29;20175;-67
2021/09/04 08:09:12;;;;;;;13.03;8.27;;;21.40;37.50;;;;;;4955491;29;20775;-67
2021/09/04 08:11:38;;;;;;;9.40;8.60;;;21.40;37.40;;;;;;4955726;29;20246;-68
2021/09/04 08:14:03;;;;;;;8.70;7.90;;;21.40;37.50;;;;;;4955436;29;20203;-67
2021/09/04 08:16:29;;;;;;;8.20;7.60;;;21.40;37.40;;;;;;4955085;29;20187;-66
2021/09/04 08:18:54;;;;;;;8.93;8.03;;;21.40;37.50;;;;;;4955660;29;20187;-67
2021/09/04 08:21:20;;;;;;;8.30;7.60;;;21.40;37.60;;;;;;4955187;29;20219;-67
2021/09/04 08:23:45;;;;;;;9.03;8.10;;;21.40;37.70;;;;;;4955378;29;20199;-67
2021/09/04 08:26:11;;;;;;;8.10;7.47;;;21.40;37.70;;;;;;4955325;29;20179;-68
2021/09/04 08:28:37;;;;;;;8.83;7.60;;;21.40;37.60;;;;;;4954995;28;20199;-68
2021/09/04 08:31:03;;;;;;;8.87;7.97;;;21.40;37.70;;;;;;4953931;28;20221;-69
2021/09/04 08:33:28;;;;;;;8.47;7.77;;;21.50;37.60;;;;;;4954861;28;20756;-68
2021/09/04 08:35:54;;;;;;;8.17;7.37;;;21.50;38.30;;;;;;4955319;29;20407;-70
2021/09/04 08:38:20;;;;;;;9.27;8.37;;;21.50;37.70;;;;;;4955094;29;20176;-70
2021/09/04 08:40:46;;;;;;;9.43;8.23;;;21.40;37.50;;;;;;4955252;29;20690;-68
2021/09/04 08:43:12;;;;;;;12.30;7.53;;;21.50;37.60;;;;;;4955017;28;20254;-67
2021/09/04 08:45:39;;;;;;;8.30;7.53;;;21.50;37.50;;;;;;4955011;28;20419;-67
2021/09/04 08:48:07;;;;;;;9.10;8.20;;;21.50;37.50;;;;;;4954559;28;20175;-70
2021/09/04 08:50:32;;;;;;;8.27;7.47;;;21.50;37.60;;;;;;4954520;28;20435;-67
2021/09/04 08:52:59;;;;;;;8.13;7.30;;;21.50;37.80;;;;;;4955059;29;20933;-67
2021/09/04 08:55:24;;;;;;;9.43;8.60;;;21.60;37.80;;;;;;4948698;28;20203;-67
2021/09/04 08:57:51;;;;;;;8.33;7.73;;;21.60;37.70;;;;;;4954767;28;20985;-66
2021/09/04 09:00:35;;;;;;;7.77;7.07;;;21.70;37.60;;;;;;4953484;28;20392;-65
2021/09/04 09:03:01;;;;;;;8.33;7.20;;;21.80;37.60;;;;;;4954305;28;20766;-67
2021/09/04 09:05:40;;;;;;;8.83;8.13;;;21.80;37.50;;;;;;4954507;28;20419;-68
2021/09/04 09:08:07;;;;;;;8.80;7.90;;;21.90;37.50;;;;;;4935102;29;20455;-68
2021/09/04 09:10:37;;;;;;;9.10;7.63;;;21.90;37.40;;;;;;4941163;28;20827;-67
2021/09/04 09:13:04;;;;;;;9.90;7.93;;;21.90;37.30;;;;;;4954175;28;20427;-67
2021/09/04 09:15:32;;;;;;;9.00;7.40;;;21.90;37.30;;;;;;4954016;28;20965;-67
2021/09/04 09:17:59;;;;;;;8.27;7.47;;;22.00;37.30;;;;;;4953779;28;20411;-67
2021/09/04 09:20:26;;;;;;;7.93;7.30;;;22.00;37.20;;;;;;4953984;28;20431;-67
2021/09/04 09:22:51;;;;;;;7.63;7.03;;;22.00;37.10;;;;;;4953597;28;20422;-68
2021/09/04 09:25:19;;;;;;;8.60;7.90;;;22.00;37.00;;;;;;4953278;28;20784;-68
2021/09/04 09:28:01;;;;;;;7.50;6.80;;;22.10;37.10;;;;;;4953581;28;20716;-66
2021/09/04 09:30:35;;;;;;;7.63;7.00;;;22.10;37.10;;;;;;4953492;28;20518;-68
2021/09/04 09:33:02;;;;;;;8.77;7.87;;;22.10;37.00;;;;;;4953809;28;20565;-67
2021/09/04 09:35:37;;;;;;;7.13;6.63;;;22.20;37.10;;;;;;4953714;28;20976;-67
2021/09/04 09:38:05;;;;;;;7.67;7.07;;;22.20;37.10;;;;;;4953630;28;20429;-67
2021/09/04 09:40:31;;;;;;;8.07;7.27;;;22.20;37.10;;;;;;4952305;28;20511;-68
2021/09/04 09:42:56;;;;;;;7.53;6.93;;;22.30;37.10;;;;;;4953230;28;20501;-69
2021/09/04 09:45:52;;;;;;;10.87;6.47;;;22.20;37.10;;;;;;4953422;28;20183;-68
2021/09/04 09:48:27;;;;;;;8.10;6.60;;;22.30;37.10;;;;;;4944793;28;20282;-68
2021/09/04 09:50:53;;;;;;;6.70;6.30;;;22.30;37.10;;;;;;4953664;28;20577;-68
2021/09/04 09:53:20;;;;;;;7.30;6.70;;;22.30;37.00;;;;;;4953613;28;20411;-67
2021/09/04 09:55:47;;;;;;;8.00;7.40;;;22.30;37.00;;;;;;4953013;28;20557;-68
2021/09/04 09:58:14;;;;;;;8.30;7.60;;;22.40;37.00;;;;;;4953351;28;20407;-68
2021/09/04 10:00:41;;;;;;;7.60;6.90;;;22.40;37.00;;;;;;4952963;28;20461;-69
2021/09/04 10:03:09;;;;;;;8.37;7.57;;;22.40;37.00;;;;;;4953338;28;20415;-68
2021/09/04 10:05:35;;;;;;;9.90;7.53;;;22.40;37.00;;;;;;4953813;28;20419;-68
2021/09/04 10:08:00;;;;;;;8.67;7.87;;;22.40;36.70;;;;;;4953599;28;20819;-68
2021/09/04 10:10:29;;;;;;;7.87;7.17;;;22.40;36.60;;;;;;4953498;28;20528;-69
2021/09/04 10:12:55;;;;;;;9.20;7.80;;;22.40;36.50;;;;;;4953538;28;20171;-67
2021/09/04 10:15:24;;;;;;;11.07;8.70;;;22.40;36.40;;;;;;4953464;28;20461;-68
2021/09/04 10:17:53;;;;;;;8.13;7.43;;;22.40;36.40;;;;;;4953312;28;20411;-68
2021/09/04 10:20:21;;;;;;;10.70;7.67;;;22.40;36.20;;;;;;4953633;28;20806;-68
2021/09/04 10:22:47;;;;;;;7.30;6.47;;;22.40;36.10;;;;;;4953507;28;20408;-67
2021/09/04 10:25:18;;;;;;;14.40;7.13;;;22.40;36.10;;;;;;4953316;29;20510;-68
2021/09/04 10:27:45;;;;;;;8.20;7.40;;;22.40;36.30;;;;;;4953034;28;20221;-67
2021/09/04 10:30:20;;;;;;;8.50;6.70;;;22.40;36.20;;;;;;4951994;29;20744;-69
2021/09/04 10:32:59;;;;;;;7.70;6.40;;;22.30;35.90;;;;;;4953227;29;20909;-70
2021/09/04 10:35:43;;;;;;;7.33;6.73;;;22.40;36.10;;;;;;4953477;29;20458;-69
2021/09/04 10:38:18;;;;;;;7.20;6.60;;;22.40;36.00;;;;;;4953365;29;20458;-67
2021/09/04 10:40:52;;;;;;;7.07;6.47;;;22.40;35.90;;;;;;4953006;28;20431;-69
2021/09/04 10:43:20;;;;;;;6.80;6.27;;;22.40;35.80;;;;;;4953195;28;20407;-68
2021/09/04 10:45:49;;;;;;;7.00;6.40;;;22.30;35.70;;;;;;4953103;28;20411;-71
2021/09/04 10:48:16;;;;;;;7.23;6.60;;;22.30;35.60;;;;;;4952982;28;20906;-67
2021/09/04 10:50:59;;;;;;;27.90;10.23;;;22.30;36.30;;;;;;4952549;29;20430;-68
2021/09/04 10:53:50;;;;;;;67.43;15.90;;;22.30;35.50;;;;;;4953987;28;20952;-68
2021/09/04 10:56:22;;;;;;;35.87;12.27;;;22.30;35.40;;;;;;4956886;28;20418;-67
2021/09/04 10:58:49;;;;;;;57.77;13.27;;;22.30;35.30;;;;;;4956597;28;20837;-68
2021/09/04 11:01:52;;;;;;;56.23;13.03;;;22.40;35.30;;;;;;4956128;28;20450;-69
2021/09/04 11:04:18;;;;;;;47.93;11.50;;;22.30;35.10;;;;;;4956744;28;20406;-67
2021/09/04 11:06:51;;;;;;;38.47;9.90;;;22.30;35.00;;;;;;4956720;28;20513;-67
2021/09/04 11:09:17;;;;;;;31.23;10.23;;;22.30;34.80;;;;;;4956293;28;20206;-70
2021/09/04 11:11:43;;;;;;;26.70;8.47;;;22.40;34.80;;;;;;4956351;28;20447;-68
2021/09/04 11:14:24;;;;;;;18.23;8.10;;;22.40;34.70;;;;;;4956820;28;20489;-68
2021/09/04 11:16:58;;;;;;;19.13;8.50;;;22.40;34.70;;;;;;4956290;28;20513;-67
2021/09/04 11:19:32;;;;;;;18.90;8.13;;;22.40;34.60;;;;;;4956383;28;20425;-68
2021/09/04 11:22:11;;;;;;;12.17;7.50;;;22.40;34.50;;;;;;4956261;28;20906;-68
2021/09/04 11:24:42;;;;;;;12.30;7.73;;;22.40;34.50;;;;;;4956128;28;20419;-68
2021/09/04 11:27:16;;;;;;;17.43;8.27;;;22.40;34.60;;;;;;4956158;28;20906;-67
2021/09/04 11:30:01;;;;;;;13.67;7.27;;;22.40;34.60;;;;;;4956116;28;20433;-69
2021/09/04 11:32:29;;;;;;;17.90;7.10;;;22.40;34.80;;;;;;4956202;28;20926;-70
2021/09/04 11:35:04;;;;;;;10.33;6.87;;;22.40;34.80;;;;;;4956397;28;20549;-70
2021/09/04 11:37:32;;;;;;;18.10;8.10;;;22.40;34.80;;;;;;4956070;28;20410;-68
2021/09/04 11:40:10;;;;;;;8.90;6.47;;;22.40;34.80;;;;;;4955627;28;20486;-67
2021/09/04 11:42:41;;;;;;;7.87;7.10;;;22.40;34.70;;;;;;4955911;28;20414;-67
2021/09/04 11:45:11;;;;;;;8.20;6.90;;;22.40;34.70;;;;;;4955966;28;20491;-67
2021/09/04 11:47:39;;;;;;;12.20;7.00;;;22.40;34.70;;;;;;4955539;28;20410;-66
2021/09/04 11:50:08;;;;;;;10.90;6.43;;;22.40;34.70;;;;;;4955950;28;20434;-67
2021/09/04 11:52:39;;;;;;;8.03;7.20;;;22.50;34.80;;;;;;4955700;28;20929;-66
2021/09/04 11:55:17;;;;;;;8.83;7.87;;;22.40;34.70;;;;;;4955602;28;20792;-67
2021/09/04 11:57:44;;;;;;;7.87;6.80;;;22.50;34.70;;;;;;4955882;28;20429;-67
2021/09/04 12:00:11;;;;;;;8.80;6.97;;;22.50;34.60;;;;;;4955587;28;20449;-66
2021/09/04 12:02:42;;;;;;;16.23;7.93;;;22.40;34.40;;;;;;4955637;28;20418;-67
2021/09/04 12:05:09;;;;;;;8.43;7.63;;;22.40;34.50;;;;;;4955142;28;20519;-66
2021/09/04 12:07:36;;;;;;;14.33;6.90;;;22.50;34.50;;;;;;4955435;28;20948;-70
2021/09/04 12:10:04;;;;;;;7.90;7.20;;;22.50;34.70;;;;;;4955008;28;20775;-67
2021/09/04 12:12:30;;;;;;;8.30;7.50;;;22.50;34.60;;;;;;4956067;28;20785;-67
2021/09/04 12:14:57;;;;;;;7.50;6.90;;;22.50;34.60;;;;;;4955291;28;20466;-68
2021/09/04 12:17:23;;;;;;;7.40;6.80;;;22.50;34.70;;;;;;4955201;28;20403;-67
2021/09/04 12:19:50;;;;;;;7.17;6.50;;;22.50;34.70;;;;;;4955057;28;20929;-69
2021/09/04 12:22:16;;;;;;;8.50;6.50;;;22.50;34.60;;;;;;4955183;28;20411;-67
2021/09/04 12:24:42;;;;;;;7.87;7.17;;;22.50;34.60;;;;;;4954816;28;20779;-69
2021/09/04 12:27:08;;;;;;;7.60;6.80;;;22.50;34.70;;;;;;4955423;28;20932;-68
2021/09/04 12:29:34;;;;;;;7.47;6.87;;;22.50;34.70;;;;;;4954888;28;20175;-68
2021/09/04 12:32:11;;;;;;;7.87;7.07;;;22.50;34.70;;;;;;4955004;28;20421;-68
2021/09/04 12:34:38;;;;;;;6.63;6.13;;;22.50;34.80;;;;;;4955133;28;20352;-68
2021/09/04 12:37:23;;;;;;;7.37;6.70;;;22.50;34.80;;;;;;4955145;28;20751;-70
2021/09/04 12:39:49;;;;;;;6.10;5.60;;;22.50;34.80;;;;;;4954692;28;20529;-71
2021/09/04 12:42:14;;;;;;;6.90;6.20;;;22.50;34.80;;;;;;4955101;29;20414;-69
2021/09/04 12:44:49;;;;;;;6.80;6.20;;;22.40;34.80;;;;;;4954642;29;20179;-71